createdAt,value
2017-08-04T00:01:54.097Z,19.45
2017-08-04T00:04:21.797Z,27.75
2017-08-04T00:06:49.382Z,20.42
2017-08-04T00:09:17.101Z,20.00
2017-08-04T00:11:44.784Z,24.12
2017-08-04T00:14:12.371Z,21.52
2017-08-04T00:16:39.951Z,22.42
2017-08-04T00:19:07.492Z,29.35
2017-08-04T00:21:35.147Z,21.15
2017-08-04T00:24:03.518Z,19.27
2017-08-04T00:26:31.073Z,23.95
2017-08-04T00:28:58.628Z,24.33
2017-08-04T00:31:26.275Z,28.48
2017-08-04T00:33:53.823Z,21.00
2017-08-04T00:36:21.398Z,18.35
2017-08-04T00:38:49.003Z,15.25
2017-08-04T00:41:16.584Z,19.58
2017-08-04T00:43:44.152Z,19.55
2017-08-04T00:46:11.745Z,15.25
2017-08-04T00:48:39.294Z,17.62
2017-08-04T00:51:06.876Z,15.75
2017-08-04T00:53:34.465Z,12.55
2017-08-04T00:56:02.015Z,16.60
2017-08-04T00:58:29.568Z,16.50
2017-08-04T01:00:57.196Z,22.05
2017-08-04T01:03:24.766Z,14.57
2017-08-04T01:05:52.312Z,12.65
2017-08-04T01:08:19.896Z,20.17
2017-08-04T01:10:47.419Z,18.48
2017-08-04T01:13:14.986Z,18.65
2017-08-04T01:15:42.729Z,13.70
2017-08-04T01:18:10.208Z,16.35
2017-08-04T01:20:37.722Z,20.08
2017-08-04T01:23:05.328Z,18.83
2017-08-04T01:25:32.841Z,17.58
2017-08-04T01:28:00.406Z,22.15
2017-08-04T01:30:28.686Z,27.70
2017-08-04T01:32:56.255Z,17.23
2017-08-04T01:35:23.752Z,25.88
2017-08-04T01:37:51.561Z,19.58
2017-08-04T01:40:19.849Z,16.62
2017-08-04T01:42:47.417Z,14.45
2017-08-04T01:45:15.023Z,12.68
2017-08-04T01:47:42.593Z,18.67
2017-08-04T01:50:10.160Z,18.08
2017-08-04T01:52:37.750Z,21.87
2017-08-04T01:55:05.263Z,20.25
2017-08-04T01:57:32.788Z,21.23
2017-08-04T02:00:00.365Z,20.98
2017-08-04T02:02:27.927Z,17.85
2017-08-04T02:04:55.421Z,17.40
2017-08-04T02:07:23.786Z,16.45
2017-08-04T02:09:51.421Z,27.17
2017-08-04T02:12:18.995Z,19.50
2017-08-04T02:14:46.610Z,13.27
2017-08-04T02:17:14.172Z,20.92
2017-08-04T02:19:45.251Z,17.73
2017-08-04T02:22:12.804Z,18.75
2017-08-04T02:24:40.315Z,16.20
2017-08-04T02:27:07.849Z,16.48
2017-08-04T02:29:35.609Z,18.40
2017-08-04T02:32:03.147Z,15.80
2017-08-04T02:34:30.656Z,14.50
2017-08-04T02:36:58.500Z,19.58
2017-08-04T02:39:26.036Z,14.18
2017-08-04T02:41:53.574Z,12.30
2017-08-04T02:44:21.159Z,15.48
2017-08-04T02:46:48.713Z,13.43
2017-08-04T02:49:16.266Z,23.77
2017-08-04T02:51:43.857Z,22.87
2017-08-04T02:54:11.409Z,18.15
2017-08-04T02:56:38.972Z,17.55
2017-08-04T02:59:06.790Z,19.55
2017-08-04T03:01:34.358Z,31.98
2017-08-04T03:04:01.942Z,24.70
2017-08-04T03:06:29.522Z,19.00
2017-08-04T03:08:57.095Z,18.25
2017-08-04T03:11:24.638Z,17.60
2017-08-04T03:13:52.394Z,25.55
2017-08-04T03:16:19.999Z,18.67
2017-08-04T03:18:48.368Z,15.80
2017-08-04T03:21:16.721Z,13.13
2017-08-04T03:23:44.278Z,16.10
2017-08-04T03:26:11.843Z,17.85
2017-08-04T03:28:39.450Z,20.58
2017-08-04T03:31:06.989Z,16.58
2017-08-04T03:33:34.510Z,19.98
2017-08-04T03:36:02.070Z,18.08
2017-08-04T03:38:29.596Z,33.60
2017-08-04T03:40:57.143Z,17.67
2017-08-04T03:43:24.732Z,18.08
2017-08-04T03:45:52.303Z,18.05
2017-08-04T03:48:19.875Z,18.87
2017-08-04T03:50:47.439Z,19.05
2017-08-04T03:53:14.987Z,15.02
2017-08-04T03:55:42.570Z,17.02
2017-08-04T03:58:10.102Z,21.95
2017-08-04T04:00:37.678Z,18.37
2017-08-04T04:03:05.280Z,21.92
2017-08-04T04:05:33.734Z,16.45
2017-08-04T04:08:02.083Z,15.68
2017-08-04T04:10:29.660Z,16.45
2017-08-04T04:12:57.241Z,14.60
2017-08-04T04:15:24.757Z,12.52
2017-08-04T04:17:52.311Z,20.33
2017-08-04T04:20:20.010Z,14.40
2017-08-04T04:22:47.590Z,19.75
2017-08-04T04:25:15.185Z,15.25
2017-08-04T04:27:42.776Z,12.02
2017-08-04T04:30:10.337Z,24.73
2017-08-04T04:32:37.859Z,18.92
2017-08-04T04:35:05.417Z,13.73
2017-08-04T04:37:33.998Z,19.40
2017-08-04T04:40:01.550Z,13.48
2017-08-04T04:42:29.311Z,25.10
2017-08-04T04:44:57.624Z,25.58
2017-08-04T04:47:25.203Z,48.20
2017-08-04T04:49:52.931Z,35.63
2017-08-04T04:52:20.483Z,29.52
2017-08-04T04:54:48.015Z,19.33
2017-08-04T04:57:15.731Z,15.23
2017-08-04T04:59:43.257Z,21.58
2017-08-04T05:02:10.802Z,20.55
2017-08-04T05:04:39.161Z,14.82
2017-08-04T05:07:06.719Z,14.68
2017-08-04T05:09:34.290Z,13.18
2017-08-04T05:12:01.889Z,33.05
2017-08-04T05:14:29.409Z,16.52
2017-08-04T05:16:56.961Z,17.90
2017-08-04T05:19:24.653Z,22.40
2017-08-04T05:21:52.196Z,13.90
2017-08-04T05:24:19.738Z,13.40
2017-08-04T05:26:47.245Z,16.02
2017-08-04T05:29:14.831Z,13.98
2017-08-04T05:31:42.392Z,15.48
2017-08-04T05:34:09.994Z,12.77
2017-08-04T05:36:37.570Z,13.07
2017-08-04T05:39:05.108Z,19.73
2017-08-04T05:41:33.474Z,19.65
2017-08-04T05:44:01.008Z,12.02
2017-08-04T05:46:28.623Z,16.37
2017-08-04T05:48:56.361Z,11.38
2017-08-04T05:51:23.884Z,7.25
2017-08-04T05:53:51.379Z,19.57
2017-08-04T05:56:19.771Z,15.30
2017-08-04T05:58:48.099Z,7.90
2017-08-04T06:01:16.533Z,4.73
2017-08-04T06:03:45.038Z,9.90
2017-08-04T06:06:12.533Z,6.13
2017-08-04T06:08:40.126Z,9.10
2017-08-04T06:11:08.468Z,11.53
2017-08-04T06:13:36.027Z,5.30
2017-08-04T06:16:03.539Z,5.17
2017-08-04T06:18:31.135Z,4.37
2017-08-04T06:20:58.709Z,8.57
2017-08-04T06:23:26.287Z,8.63
2017-08-04T06:25:53.921Z,5.20
2017-08-04T06:28:21.471Z,5.13
2017-08-04T06:30:49.041Z,5.97
2017-08-04T06:33:16.598Z,25.60
2017-08-04T06:35:44.158Z,4.70
2017-08-04T06:38:11.716Z,2.50
2017-08-04T06:40:39.461Z,6.67
2017-08-04T06:43:07.014Z,5.13
2017-08-04T06:45:34.521Z,10.53
2017-08-04T06:48:02.067Z,5.50
2017-08-04T06:50:51.323Z,6.90
2017-08-04T06:53:30.626Z,2.80
2017-08-04T06:56:13.874Z,6.53
2017-08-04T06:58:41.463Z,9.30
2017-08-04T07:01:09.012Z,4.30
2017-08-04T07:03:36.530Z,3.07
2017-08-04T07:06:04.101Z,4.80
2017-08-04T07:08:31.701Z,6.30
2017-08-04T07:10:59.255Z,4.50
2017-08-04T07:13:26.844Z,4.27
2017-08-04T07:15:54.401Z,3.47
2017-08-04T07:18:22.134Z,3.20
2017-08-04T07:20:49.716Z,6.07
2017-08-04T07:23:17.247Z,12.93
2017-08-04T07:25:44.755Z,3.50
2017-08-04T07:28:13.140Z,3.87
2017-08-04T07:30:41.480Z,7.60
2017-08-04T07:33:09.002Z,10.50
2017-08-04T07:35:36.603Z,6.83
2017-08-04T07:38:04.137Z,3.57
2017-08-04T07:40:31.682Z,3.13
2017-08-04T07:42:59.271Z,4.13
2017-08-04T07:45:26.775Z,3.53
2017-08-04T07:47:54.340Z,4.90
2017-08-04T07:50:22.756Z,3.20
2017-08-04T07:52:50.378Z,3.03
2017-08-04T07:55:17.898Z,3.13
2017-08-04T07:57:45.458Z,4.60
2017-08-04T08:00:13.029Z,6.20
2017-08-04T08:02:40.568Z,2.03
2017-08-04T08:05:08.132Z,4.93
2017-08-04T08:07:37.015Z,2.53
2017-08-04T08:10:04.804Z,7.67
2017-08-04T08:12:32.520Z,7.60
2017-08-04T08:15:00.041Z,7.50
2017-08-04T08:17:27.600Z,3.73
2017-08-04T08:19:55.257Z,9.33
2017-08-04T08:22:22.809Z,7.93
2017-08-04T08:24:50.373Z,4.90
2017-08-04T08:27:17.966Z,6.30
2017-08-04T08:29:46.287Z,5.90
2017-08-04T08:32:13.904Z,4.53
2017-08-04T08:34:42.440Z,5.10
2017-08-04T08:37:10.232Z,4.83
2017-08-04T08:39:38.020Z,2.07
2017-08-04T08:42:07.766Z,5.50
2017-08-04T08:44:36.056Z,3.00
2017-08-04T08:47:03.626Z,3.37
2017-08-04T08:49:31.160Z,6.07
2017-08-04T08:51:58.717Z,3.80
2017-08-04T08:54:26.333Z,5.70
2017-08-04T08:56:54.073Z,8.80
2017-08-04T08:59:21.662Z,3.90
2017-08-04T09:01:49.960Z,9.10
2017-08-04T09:04:17.723Z,3.60
2017-08-04T09:06:45.538Z,4.83
2017-08-04T09:09:13.302Z,3.90
2017-08-04T09:11:41.401Z,8.80
2017-08-04T09:14:09.970Z,7.30
2017-08-04T09:16:37.570Z,3.30
2017-08-04T09:19:06.053Z,8.50
2017-08-04T09:21:33.616Z,3.07
2017-08-04T09:24:01.167Z,4.20
2017-08-04T09:26:28.918Z,2.63
2017-08-04T09:28:57.233Z,5.20
2017-08-04T09:31:24.835Z,6.43
2017-08-04T09:33:52.376Z,5.10
2017-08-04T09:36:19.977Z,4.90
2017-08-04T09:38:48.320Z,3.87
2017-08-04T09:41:15.919Z,3.67
2017-08-04T09:43:43.518Z,5.50
2017-08-04T09:46:11.102Z,6.33
2017-08-04T09:48:38.710Z,3.40
2017-08-04T09:51:06.286Z,8.93
2017-08-04T09:53:33.827Z,3.53
2017-08-04T09:56:01.459Z,4.60
2017-08-04T09:58:29.039Z,3.23
2017-08-04T10:00:56.623Z,10.57
2017-08-04T10:03:24.267Z,7.30
2017-08-04T10:05:51.858Z,9.50
2017-08-04T10:08:19.497Z,6.33
2017-08-04T10:10:47.135Z,8.73
2017-08-04T10:13:14.768Z,7.63
2017-08-04T10:15:42.370Z,13.30
2017-08-04T10:18:10.739Z,10.23
2017-08-04T10:20:38.303Z,12.43
2017-08-04T10:23:05.934Z,10.30
2017-08-04T10:25:33.663Z,5.80
2017-08-04T10:28:01.229Z,6.03
2017-08-04T10:30:28.781Z,5.83
2017-08-04T10:32:56.367Z,3.77
2017-08-04T10:35:23.915Z,8.53
2017-08-04T10:37:51.490Z,3.37
2017-08-04T10:40:19.137Z,6.90
2017-08-04T10:42:46.662Z,4.30
2017-08-04T10:45:14.265Z,3.10
2017-08-04T10:47:41.861Z,6.47
2017-08-04T10:50:09.388Z,5.00
2017-08-04T10:52:36.970Z,7.33
2017-08-04T10:55:04.544Z,5.03
2017-08-04T10:57:32.145Z,7.73
2017-08-04T10:59:59.726Z,6.70
2017-08-04T11:02:28.105Z,8.90
2017-08-04T11:04:55.713Z,8.97
2017-08-04T11:07:23.361Z,2.93
2017-08-04T11:09:51.051Z,10.43
2017-08-04T11:12:18.616Z,7.23
2017-08-04T11:14:46.172Z,7.20
2017-08-04T11:17:13.807Z,6.53
2017-08-04T11:19:41.361Z,5.90
2017-08-04T11:22:08.941Z,4.43
2017-08-04T11:24:37.308Z,4.90
2017-08-04T11:27:04.881Z,5.10
2017-08-04T11:29:32.385Z,6.90
2017-08-04T11:31:59.963Z,8.37
2017-08-04T11:34:27.522Z,10.23
2017-08-04T11:36:55.060Z,10.60
2017-08-04T11:39:22.810Z,5.40
2017-08-04T11:41:50.374Z,3.33
2017-08-04T11:44:17.926Z,5.67
2017-08-04T11:46:45.514Z,6.93
2017-08-04T11:49:13.077Z,4.20
2017-08-04T11:51:40.606Z,9.50
2017-08-04T11:54:08.190Z,3.87
2017-08-04T11:56:35.759Z,5.43
2017-08-04T11:59:03.473Z,7.00
2017-08-04T12:01:31.047Z,10.23
2017-08-04T12:03:58.589Z,7.70
2017-08-04T12:06:26.188Z,7.17
2017-08-04T12:08:53.886Z,14.33
2017-08-04T12:11:21.531Z,8.03
2017-08-04T12:13:49.069Z,5.43
2017-08-04T12:16:16.694Z,4.43
2017-08-04T12:18:45.044Z,5.60
2017-08-04T12:21:12.625Z,7.40
2017-08-04T12:23:40.346Z,8.17
2017-08-04T12:26:07.889Z,11.20
2017-08-04T12:28:35.462Z,9.37
2017-08-04T12:31:03.054Z,6.30
2017-08-04T12:33:30.714Z,7.87
2017-08-04T12:35:58.287Z,4.33
2017-08-04T12:38:25.878Z,4.50
2017-08-04T12:40:53.450Z,6.40
2017-08-04T12:43:21.011Z,5.03
2017-08-04T12:45:48.599Z,3.40
2017-08-04T12:48:16.144Z,8.50
2017-08-04T12:50:43.712Z,6.07
2017-08-04T12:53:11.427Z,3.13
2017-08-04T12:55:39.009Z,4.80
2017-08-04T12:58:06.793Z,3.20
2017-08-04T13:00:35.190Z,5.40
2017-08-04T13:03:02.756Z,5.37
2017-08-04T13:05:30.389Z,3.77
2017-08-04T13:07:58.169Z,6.83
2017-08-04T13:10:25.844Z,7.60
2017-08-04T13:12:53.431Z,10.90
2017-08-04T13:15:22.715Z,7.37
2017-08-04T13:17:50.285Z,14.60
2017-08-04T13:20:17.819Z,26.10
2017-08-04T13:22:45.923Z,5.20
2017-08-04T13:25:13.507Z,11.00
2017-08-04T13:27:41.061Z,7.30
2017-08-04T13:30:08.598Z,19.57
2017-08-04T13:32:36.252Z,8.67
2017-08-04T13:35:03.755Z,9.40
2017-08-04T13:37:31.315Z,6.03
2017-08-04T13:39:58.893Z,2.40
2017-08-04T13:42:26.459Z,3.53
2017-08-04T13:44:54.206Z,3.47
2017-08-04T13:47:21.773Z,3.97
2017-08-04T13:49:49.326Z,3.03
2017-08-04T13:52:16.957Z,1.80
2017-08-04T13:54:44.469Z,3.97
2017-08-04T13:57:12.198Z,4.23
2017-08-04T13:59:39.786Z,5.23
2017-08-04T14:02:07.359Z,3.47
2017-08-04T14:04:36.013Z,5.13
2017-08-04T14:07:03.583Z,3.17
2017-08-04T14:09:31.080Z,7.23
2017-08-04T14:11:59.422Z,5.40
2017-08-04T14:14:27.260Z,7.10
2017-08-04T14:16:54.923Z,3.70
2017-08-04T14:19:22.508Z,2.13
2017-08-04T14:21:50.166Z,3.47
2017-08-04T14:24:17.693Z,4.13
2017-08-04T14:26:46.005Z,6.40
2017-08-04T14:29:13.604Z,4.53
2017-08-04T14:31:41.136Z,3.00
2017-08-04T14:34:08.676Z,5.70
2017-08-04T14:36:36.453Z,3.10
2017-08-04T14:39:04.012Z,2.37
2017-08-04T14:41:31.561Z,3.00
2017-08-04T14:43:59.664Z,2.03
2017-08-04T14:46:27.235Z,2.63
2017-08-04T14:48:54.812Z,2.80
2017-08-04T14:51:22.393Z,3.17
2017-08-04T14:53:49.934Z,7.87
2017-08-04T14:56:17.494Z,5.50
2017-08-04T14:58:45.256Z,2.03
2017-08-04T15:01:12.840Z,3.60
2017-08-04T15:03:40.437Z,3.00
2017-08-04T15:06:08.064Z,2.20
2017-08-04T15:08:35.619Z,7.40
2017-08-04T15:11:03.189Z,2.77
2017-08-04T15:13:30.925Z,2.10
2017-08-04T15:15:58.525Z,5.10
2017-08-04T15:18:26.021Z,3.33
2017-08-04T15:20:54.426Z,2.43
2017-08-04T15:23:23.433Z,2.40
2017-08-04T15:25:51.746Z,1.77
2017-08-04T15:28:19.409Z,4.43
2017-08-04T15:30:46.952Z,3.00
2017-08-04T15:33:14.523Z,7.10
2017-08-04T15:35:42.097Z,2.13
2017-08-04T15:38:09.665Z,4.73
2017-08-04T15:40:37.194Z,3.73
2017-08-04T15:43:04.939Z,6.30
2017-08-04T15:45:32.444Z,5.83
2017-08-04T15:48:02.659Z,3.40
2017-08-04T18:11:35.829Z,7.25
2017-08-04T18:14:03.372Z,6.12
2017-08-04T18:16:30.916Z,6.85
2017-08-04T18:18:58.470Z,7.93
2017-08-04T18:21:25.986Z,9.45
2017-08-04T18:23:53.511Z,7.32
2017-08-04T18:26:21.261Z,11.82
2017-08-04T18:28:49.741Z,16.58
2017-08-04T18:31:18.574Z,10.48
2017-08-04T18:33:47.326Z,5.70
2017-08-04T18:36:14.873Z,9.23
2017-08-04T18:38:42.432Z,15.00
2017-08-04T18:41:10.000Z,13.80
2017-08-04T18:43:37.941Z,9.00
2017-08-04T18:46:08.015Z,7.40
2017-08-04T18:48:35.634Z,13.18
2017-08-04T18:56:50.060Z,14.23
2017-08-04T18:59:18.707Z,12.05
2017-08-04T19:01:47.614Z,19.52
2017-08-04T19:04:15.399Z,17.83
2017-08-04T19:06:43.077Z,11.12
2017-08-04T19:09:11.495Z,11.95
2017-08-04T19:11:39.136Z,12.63
2017-08-04T19:14:07.522Z,13.50
2017-08-04T19:16:35.148Z,10.18
2017-08-04T19:19:02.778Z,13.62
2017-08-04T19:21:30.610Z,15.88
2017-08-04T19:24:01.638Z,18.08
2017-08-04T19:26:29.343Z,21.80
2017-08-04T19:28:56.938Z,16.87
2017-08-04T19:31:24.543Z,11.60
2017-08-04T19:33:54.049Z,11.60
2017-08-04T19:36:21.667Z,15.23
2017-08-04T19:38:49.333Z,17.37
2017-08-04T19:41:17.179Z,17.95
2017-08-04T19:43:44.893Z,23.92
2017-08-04T19:46:12.515Z,21.45
2017-08-04T19:48:40.183Z,24.00
2017-08-04T19:51:07.804Z,20.02
2017-08-04T19:53:35.474Z,32.15
2017-08-04T19:56:03.292Z,14.70
2017-08-04T19:58:31.071Z,15.32
2017-08-04T20:00:59.144Z,21.92
2017-08-04T20:03:27.530Z,21.83
2017-08-04T20:05:57.476Z,38.80
2017-08-04T20:08:25.190Z,60.15
2017-08-04T20:10:52.913Z,19.30
2017-08-04T20:13:30.098Z,21.55
2017-08-04T20:15:58.924Z,12.45
2017-08-04T20:18:28.849Z,15.52
2017-08-04T20:20:58.840Z,20.10
2017-08-04T20:23:26.697Z,24.37
2017-08-04T20:25:55.790Z,18.42
2017-08-04T20:28:23.479Z,14.30
2017-08-04T20:30:51.288Z,14.13
2017-08-04T20:33:20.542Z,10.63
2017-08-04T20:35:54.817Z,12.20
2017-08-04T20:38:22.438Z,19.50
2017-08-04T20:40:52.774Z,12.18
2017-08-04T20:43:20.520Z,18.02
2017-08-04T20:45:48.202Z,26.83
2017-08-04T20:48:15.844Z,16.75
2017-08-04T20:53:59.095Z,19.40
2017-08-04T20:56:26.772Z,18.15
2017-08-04T20:58:54.574Z,14.93
2017-08-04T21:01:22.165Z,18.02
2017-08-04T21:03:49.998Z,20.85
2017-08-04T21:06:17.672Z,24.20
2017-08-04T21:08:45.249Z,14.48
2017-08-04T21:11:12.845Z,12.82
2017-08-04T21:13:40.413Z,12.93
2017-08-04T21:16:08.008Z,26.65
2017-08-04T21:18:35.938Z,19.60
2017-08-04T21:21:04.208Z,22.45
2017-08-04T21:23:32.072Z,11.52
2017-08-04T21:25:59.652Z,15.25
2017-08-04T21:28:27.255Z,13.25
2017-08-04T21:30:54.772Z,14.13
2017-08-04T21:33:22.513Z,14.90
2017-08-04T21:35:50.045Z,12.20
2017-08-04T21:38:17.671Z,17.87
2017-08-04T21:40:45.273Z,19.65
2017-08-04T21:43:12.849Z,16.50
2017-08-04T21:45:40.421Z,17.67
2017-08-04T21:48:08.302Z,17.75
2017-08-04T21:50:35.852Z,8.98
2017-08-04T21:53:03.441Z,13.02
2017-08-04T21:55:31.191Z,11.52
2017-08-04T21:57:59.518Z,22.13
2017-08-04T22:00:27.847Z,13.25
2017-08-04T22:02:55.402Z,18.67
2017-08-04T22:05:22.982Z,14.02
2017-08-04T22:07:50.686Z,20.83
2017-08-04T22:10:18.274Z,21.42
2017-08-04T22:12:45.843Z,17.35
2017-08-04T22:15:13.437Z,19.65
2017-08-04T22:17:41.027Z,21.12
2017-08-04T22:20:09.344Z,20.33
2017-08-04T22:22:36.889Z,12.43
2017-08-04T22:25:04.488Z,12.05
2017-08-04T22:27:31.987Z,8.95
2017-08-04T22:29:59.583Z,21.17
2017-08-04T22:32:27.293Z,11.57
2017-08-04T22:34:55.587Z,18.23
2017-08-04T22:37:23.192Z,15.90
2017-08-04T22:39:51.018Z,18.05
2017-08-04T22:42:18.514Z,12.68
2017-08-04T22:44:46.062Z,8.55
2017-08-04T22:47:13.702Z,12.45
2017-08-04T22:49:41.305Z,19.65
2017-08-04T22:52:08.837Z,12.00
2017-08-04T22:54:36.416Z,9.25
2017-08-04T22:57:03.957Z,12.40
2017-08-04T22:59:31.502Z,16.08
2017-08-04T23:01:59.120Z,9.60
2017-08-04T23:04:26.688Z,15.73
2017-08-04T23:06:54.272Z,9.45
2017-08-04T23:09:21.940Z,9.20
2017-08-04T23:11:49.519Z,10.35
2017-08-04T23:14:17.082Z,18.30
2017-08-04T23:16:44.825Z,12.55
2017-08-04T23:19:12.374Z,11.12
2017-08-04T23:21:40.695Z,13.98
2017-08-04T23:24:08.411Z,11.95
2017-08-04T23:26:35.975Z,16.58
2017-08-04T23:29:04.311Z,12.25
2017-08-04T23:31:31.920Z,12.37
2017-08-04T23:33:59.468Z,11.05
2017-08-04T23:36:27.049Z,14.70
2017-08-04T23:38:55.431Z,12.65
2017-08-04T23:41:22.974Z,12.50
2017-08-04T23:43:50.502Z,8.38
2017-08-04T23:46:18.078Z,15.43
2017-08-04T23:48:45.611Z,9.68
2017-08-04T23:51:13.139Z,9.75
2017-08-04T23:53:40.714Z,10.05
2017-08-04T23:56:08.293Z,11.93
2017-08-04T23:58:35.879Z,12.35
